sensor_id;sensor_type;location;lat;lon;timestamp;P1;durP1;ratioP1;P2;durP2;ratioP2
77091;SDS011;66032;48.252;11.638;2023-03-19T00:00:44;14.98;;;8.20;;
77091;SDS011;66032;48.252;11.638;2023-03-19T00:03:11;10.10;;;5.72;;
77091;SDS011;66032;48.252;11.638;2023-03-19T00:05:39;9.93;;;6.05;;
77091;SDS011;66032;48.252;11.638;2023-03-19T00:08:06;12.20;;;7.18;;
77091;SDS011;66032;48.252;11.638;2023-03-19T00:10:36;13.13;;;7.15;;
77091;SDS011;66032;48.252;11.638;2023-03-19T00:13:05;13.50;;;7.65;;
77091;SDS011;66032;48.252;11.638;2023-03-19T00:15:32;10.25;;;6.18;;
77091;SDS011;66032;48.252;11.638;2023-03-19T00:18:00;10.98;;;6.28;;
77091;SDS011;66032;48.252;11.638;2023-03-19T00:20:27;13.05;;;7.00;;
77091;SDS011;66032;48.252;11.638;2023-03-19T00:22:55;12.70;;;6.55;;
77091;SDS011;66032;48.252;11.638;2023-03-19T00:25:22;10.68;;;5.88;;
77091;SDS011;66032;48.252;11.638;2023-03-19T00:27:49;15.25;;;8.02;;
77091;SDS011;66032;48.252;11.638;2023-03-19T00:30:18;12.15;;;6.50;;
77091;SDS011;66032;48.252;11.638;2023-03-19T00:32:46;11.50;;;6.47;;
77091;SDS011;66032;48.252;11.638;2023-03-19T00:35:14;13.85;;;8.00;;
77091;SDS011;66032;48.252;11.638;2023-03-19T00:37:42;7.97;;;5.22;;
77091;SDS011;66032;48.252;11.638;2023-03-19T00:40:09;11.85;;;6.60;;
77091;SDS011;66032;48.252;11.638;2023-03-19T00:42:37;11.40;;;6.18;;
77091;SDS011;66032;48.252;11.638;2023-03-19T00:45:05;11.82;;;6.05;;
77091;SDS011;66032;48.252;11.638;2023-03-19T00:47:33;10.00;;;5.78;;
77091;SDS011;66032;48.252;11.638;2023-03-19T00:50:01;9.70;;;6.10;;
77091;SDS011;66032;48.252;11.638;2023-03-19T00:55:00;10.07;;;5.45;;
77091;SDS011;66032;48.252;11.638;2023-03-19T00:57:27;11.43;;;6.40;;
77091;SDS011;66032;48.252;11.638;2023-03-19T00:59:54;13.63;;;7.22;;
77091;SDS011;66032;48.252;11.638;2023-03-19T01:02:21;10.63;;;6.15;;
77091;SDS011;66032;48.252;11.638;2023-03-19T01:04:49;14.73;;;7.20;;
77091;SDS011;66032;48.252;11.638;2023-03-19T01:07:16;12.73;;;7.88;;
77091;SDS011;66032;48.252;11.638;2023-03-19T01:09:44;11.05;;;7.18;;
77091;SDS011;66032;48.252;11.638;2023-03-19T01:12:11;16.27;;;8.90;;
77091;SDS011;66032;48.252;11.638;2023-03-19T01:14:38;15.13;;;8.82;;
77091;SDS011;66032;48.252;11.638;2023-03-19T01:17:05;11.75;;;6.38;;
77091;SDS011;66032;48.252;11.638;2023-03-19T01:19:32;7.20;;;4.65;;
77091;SDS011;66032;48.252;11.638;2023-03-19T01:22:00;8.65;;;5.65;;
77091;SDS011;66032;48.252;11.638;2023-03-19T01:24:30;14.98;;;8.02;;
77091;SDS011;66032;48.252;11.638;2023-03-19T01:26:58;13.95;;;7.63;;
77091;SDS011;66032;48.252;11.638;2023-03-19T01:29:30;15.98;;;9.73;;
77091;SDS011;66032;48.252;11.638;2023-03-19T01:32:07;12.35;;;7.43;;
77091;SDS011;66032;48.252;11.638;2023-03-19T01:34:43;10.07;;;6.38;;
77091;SDS011;66032;48.252;11.638;2023-03-19T01:37:14;14.60;;;7.25;;
77091;SDS011;66032;48.252;11.638;2023-03-19T01:39:42;11.93;;;6.20;;
77091;SDS011;66032;48.252;11.638;2023-03-19T01:42:13;12.77;;;7.72;;
77091;SDS011;66032;48.252;11.638;2023-03-19T01:45:26;11.75;;;6.40;;
77091;SDS011;66032;48.252;11.638;2023-03-19T01:48:48;9.65;;;6.03;;
77091;SDS011;66032;48.252;11.638;2023-03-19T01:51:20;12.30;;;7.68;;
77091;SDS011;66032;48.252;11.638;2023-03-19T01:53:55;10.77;;;6.18;;
77091;SDS011;66032;48.252;11.638;2023-03-19T01:56:42;10.05;;;6.43;;
77091;SDS011;66032;48.252;11.638;2023-03-19T01:59:24;12.27;;;7.40;;
77091;SDS011;66032;48.252;11.638;2023-03-19T02:02:25;13.90;;;8.00;;
77091;SDS011;66032;48.252;11.638;2023-03-19T02:04:56;13.43;;;6.80;;
77091;SDS011;66032;48.252;11.638;2023-03-19T02:07:33;12.63;;;7.72;;
77091;SDS011;66032;48.252;11.638;2023-03-19T02:10:04;14.63;;;8.60;;
77091;SDS011;66032;48.252;11.638;2023-03-19T02:12:34;13.80;;;8.55;;
77091;SDS011;66032;48.252;11.638;2023-03-19T02:15:02;10.10;;;5.90;;
77091;SDS011;66032;48.252;11.638;2023-03-19T02:17:30;12.05;;;6.60;;
77091;SDS011;66032;48.252;11.638;2023-03-19T02:22:58;14.43;;;9.52;;
77091;SDS011;66032;48.252;11.638;2023-03-19T02:28:57;11.93;;;6.88;;
77091;SDS011;66032;48.252;11.638;2023-03-19T02:31:30;13.10;;;7.63;;
77091;SDS011;66032;48.252;11.638;2023-03-19T02:34:41;14.48;;;7.88;;
77091;SDS011;66032;48.252;11.638;2023-03-19T02:37:31;12.85;;;7.70;;
77091;SDS011;66032;48.252;11.638;2023-03-19T02:39:45;10.65;;;6.40;;
77091;SDS011;66032;48.252;11.638;2023-03-19T02:42:16;11.15;;;7.20;;
77091;SDS011;66032;48.252;11.638;2023-03-19T02:44:45;7.07;;;4.47;;
77091;SDS011;66032;48.252;11.638;2023-03-19T02:47:13;12.30;;;7.57;;
77091;SDS011;66032;48.252;11.638;2023-03-19T02:49:41;13.63;;;6.47;;
77091;SDS011;66032;48.252;11.638;2023-03-19T02:52:08;10.50;;;6.53;;
77091;SDS011;66032;48.252;11.638;2023-03-19T02:54:35;12.40;;;7.50;;
77091;SDS011;66032;48.252;11.638;2023-03-19T02:57:03;11.38;;;5.88;;
77091;SDS011;66032;48.252;11.638;2023-03-19T02:59:30;8.45;;;5.43;;
77091;SDS011;66032;48.252;11.638;2023-03-19T03:01:57;9.68;;;5.80;;
77091;SDS011;66032;48.252;11.638;2023-03-19T03:04:24;10.57;;;6.22;;
77091;SDS011;66032;48.252;11.638;2023-03-19T03:06:52;13.35;;;8.43;;
77091;SDS011;66032;48.252;11.638;2023-03-19T03:09:19;17.55;;;8.60;;
77091;SDS011;66032;48.252;11.638;2023-03-19T03:11:47;12.88;;;7.75;;
77091;SDS011;66032;48.252;11.638;2023-03-19T03:14:14;13.48;;;7.45;;
77091;SDS011;66032;48.252;11.638;2023-03-19T03:16:41;11.98;;;6.70;;
77091;SDS011;66032;48.252;11.638;2023-03-19T03:19:09;15.55;;;7.43;;
77091;SDS011;66032;48.252;11.638;2023-03-19T03:21:37;12.45;;;7.60;;
77091;SDS011;66032;48.252;11.638;2023-03-19T03:24:04;14.10;;;8.50;;
77091;SDS011;66032;48.252;11.638;2023-03-19T03:26:32;12.82;;;8.35;;
77091;SDS011;66032;48.252;11.638;2023-03-19T03:29:01;13.13;;;7.00;;
77091;SDS011;66032;48.252;11.638;2023-03-19T03:31:29;9.38;;;6.15;;
77091;SDS011;66032;48.252;11.638;2023-03-19T03:33:56;8.90;;;5.95;;
77091;SDS011;66032;48.252;11.638;2023-03-19T03:36:23;10.50;;;5.82;;
77091;SDS011;66032;48.252;11.638;2023-03-19T03:38:50;12.15;;;7.43;;
77091;SDS011;66032;48.252;11.638;2023-03-19T03:41:18;10.02;;;5.93;;
77091;SDS011;66032;48.252;11.638;2023-03-19T03:43:46;11.32;;;6.90;;
77091;SDS011;66032;48.252;11.638;2023-03-19T03:46:13;10.10;;;6.57;;
77091;SDS011;66032;48.252;11.638;2023-03-19T03:48:41;11.20;;;7.00;;
77091;SDS011;66032;48.252;11.638;2023-03-19T03:51:09;12.65;;;8.75;;
77091;SDS011;66032;48.252;11.638;2023-03-19T03:53:37;8.27;;;5.53;;
77091;SDS011;66032;48.252;11.638;2023-03-19T03:56:04;8.05;;;5.00;;
77091;SDS011;66032;48.252;11.638;2023-03-19T03:58:32;13.95;;;7.95;;
77091;SDS011;66032;48.252;11.638;2023-03-19T04:00:59;12.15;;;6.95;;
77091;SDS011;66032;48.252;11.638;2023-03-19T04:03:27;10.75;;;6.68;;
77091;SDS011;66032;48.252;11.638;2023-03-19T04:05:54;8.25;;;4.88;;
77091;SDS011;66032;48.252;11.638;2023-03-19T04:08:22;12.25;;;7.28;;
77091;SDS011;66032;48.252;11.638;2023-03-19T04:10:50;11.93;;;7.03;;
77091;SDS011;66032;48.252;11.638;2023-03-19T04:13:17;9.15;;;5.53;;
77091;SDS011;66032;48.252;11.638;2023-03-19T04:15:45;9.52;;;5.93;;
77091;SDS011;66032;48.252;11.638;2023-03-19T04:18:12;10.43;;;6.32;;
77091;SDS011;66032;48.252;11.638;2023-03-19T04:20:40;10.05;;;5.35;;
77091;SDS011;66032;48.252;11.638;2023-03-19T04:23:07;8.38;;;5.40;;
77091;SDS011;66032;48.252;11.638;2023-03-19T04:25:37;7.80;;;4.75;;
77091;SDS011;66032;48.252;11.638;2023-03-19T04:28:06;7.93;;;4.85;;
77091;SDS011;66032;48.252;11.638;2023-03-19T04:30:35;7.45;;;4.47;;
77091;SDS011;66032;48.252;11.638;2023-03-19T04:33:03;9.45;;;5.72;;
77091;SDS011;66032;48.252;11.638;2023-03-19T04:35:31;9.38;;;5.85;;
77091;SDS011;66032;48.252;11.638;2023-03-19T04:37:58;13.02;;;7.18;;
77091;SDS011;66032;48.252;11.638;2023-03-19T04:40:25;9.52;;;5.88;;
77091;SDS011;66032;48.252;11.638;2023-03-19T04:42:53;10.55;;;6.07;;
77091;SDS011;66032;48.252;11.638;2023-03-19T04:45:31;9.77;;;5.68;;
77091;SDS011;66032;48.252;11.638;2023-03-19T04:47:59;9.05;;;5.05;;
77091;SDS011;66032;48.252;11.638;2023-03-19T04:50:29;9.05;;;5.63;;
77091;SDS011;66032;48.252;11.638;2023-03-19T04:52:57;10.68;;;5.95;;
77091;SDS011;66032;48.252;11.638;2023-03-19T04:55:25;8.63;;;5.68;;
77091;SDS011;66032;48.252;11.638;2023-03-19T04:58:02;8.05;;;4.93;;
77091;SDS011;66032;48.252;11.638;2023-03-19T05:00:32;9.45;;;5.00;;
77091;SDS011;66032;48.252;11.638;2023-03-19T05:03:00;9.35;;;5.90;;
77091;SDS011;66032;48.252;11.638;2023-03-19T05:05:30;9.00;;;5.47;;
77091;SDS011;66032;48.252;11.638;2023-03-19T05:07:58;7.05;;;4.22;;
77091;SDS011;66032;48.252;11.638;2023-03-19T05:10:26;6.80;;;4.40;;
77091;SDS011;66032;48.252;11.638;2023-03-19T05:12:53;13.57;;;7.13;;
77091;SDS011;66032;48.252;11.638;2023-03-19T05:15:20;9.32;;;5.90;;
77091;SDS011;66032;48.252;11.638;2023-03-19T05:17:58;9.23;;;5.20;;
77091;SDS011;66032;48.252;11.638;2023-03-19T05:20:33;9.15;;;5.88;;
77091;SDS011;66032;48.252;11.638;2023-03-19T05:23:05;10.60;;;6.20;;
77091;SDS011;66032;48.252;11.638;2023-03-19T05:25:46;11.50;;;6.90;;
77091;SDS011;66032;48.252;11.638;2023-03-19T05:28:20;11.95;;;6.82;;
77091;SDS011;66032;48.252;11.638;2023-03-19T05:30:48;9.52;;;6.18;;
77091;SDS011;66032;48.252;11.638;2023-03-19T05:33:22;8.88;;;5.60;;
77091;SDS011;66032;48.252;11.638;2023-03-19T05:35:52;9.63;;;5.57;;
77091;SDS011;66032;48.252;11.638;2023-03-19T05:38:45;8.75;;;4.55;;
77091;SDS011;66032;48.252;11.638;2023-03-19T05:41:19;10.10;;;6.28;;
77091;SDS011;66032;48.252;11.638;2023-03-19T05:44:00;7.60;;;4.80;;
77091;SDS011;66032;48.252;11.638;2023-03-19T05:46:54;11.73;;;6.60;;
77091;SDS011;66032;48.252;11.638;2023-03-19T05:49:24;10.88;;;7.03;;
77091;SDS011;66032;48.252;11.638;2023-03-19T05:51:52;10.90;;;5.95;;
77091;SDS011;66032;48.252;11.638;2023-03-19T05:54:19;9.55;;;5.88;;
77091;SDS011;66032;48.252;11.638;2023-03-19T05:57:05;9.82;;;5.88;;
77091;SDS011;66032;48.252;11.638;2023-03-19T05:59:39;8.63;;;5.30;;
77091;SDS011;66032;48.252;11.638;2023-03-19T06:02:25;8.02;;;5.05;;
77091;SDS011;66032;48.252;11.638;2023-03-19T06:05:08;8.63;;;5.45;;
77091;SDS011;66032;48.252;11.638;2023-03-19T06:07:37;10.52;;;6.75;;
77091;SDS011;66032;48.252;11.638;2023-03-19T06:10:10;10.73;;;6.55;;
77091;SDS011;66032;48.252;11.638;2023-03-19T06:12:38;11.55;;;6.63;;
77091;SDS011;66032;48.252;11.638;2023-03-19T06:15:24;13.55;;;7.47;;
77091;SDS011;66032;48.252;11.638;2023-03-19T06:18:12;10.32;;;6.57;;
77091;SDS011;66032;48.252;11.638;2023-03-19T06:20:39;11.15;;;6.57;;
77091;SDS011;66032;48.252;11.638;2023-03-19T06:23:07;12.25;;;7.43;;
77091;SDS011;66032;48.252;11.638;2023-03-19T06:25:35;10.65;;;7.20;;
77091;SDS011;66032;48.252;11.638;2023-03-19T06:28:02;12.35;;;7.35;;
77091;SDS011;66032;48.252;11.638;2023-03-19T06:30:36;10.63;;;7.07;;
77091;SDS011;66032;48.252;11.638;2023-03-19T06:33:19;13.88;;;7.72;;
77091;SDS011;66032;48.252;11.638;2023-03-19T06:35:47;12.18;;;6.95;;
77091;SDS011;66032;48.252;11.638;2023-03-19T06:38:15;12.00;;;8.07;;
77091;SDS011;66032;48.252;11.638;2023-03-19T06:40:42;13.93;;;8.07;;
77091;SDS011;66032;48.252;11.638;2023-03-19T06:43:09;11.65;;;7.60;;
77091;SDS011;66032;48.252;11.638;2023-03-19T06:45:36;12.00;;;7.35;;
77091;SDS011;66032;48.252;11.638;2023-03-19T06:48:03;11.45;;;7.38;;
77091;SDS011;66032;48.252;11.638;2023-03-19T06:50:31;11.10;;;7.30;;
77091;SDS011;66032;48.252;11.638;2023-03-19T06:52:59;9.85;;;6.00;;
77091;SDS011;66032;48.252;11.638;2023-03-19T06:55:26;11.65;;;7.05;;
77091;SDS011;66032;48.252;11.638;2023-03-19T06:57:53;13.68;;;7.72;;
77091;SDS011;66032;48.252;11.638;2023-03-19T07:00:21;10.10;;;6.90;;
77091;SDS011;66032;48.252;11.638;2023-03-19T07:02:49;13.52;;;8.05;;
77091;SDS011;66032;48.252;11.638;2023-03-19T07:05:16;11.50;;;7.97;;
77091;SDS011;66032;48.252;11.638;2023-03-19T07:07:44;15.45;;;7.70;;
77091;SDS011;66032;48.252;11.638;2023-03-19T07:10:11;11.30;;;6.68;;
77091;SDS011;66032;48.252;11.638;2023-03-19T07:12:38;12.45;;;7.93;;
77091;SDS011;66032;48.252;11.638;2023-03-19T07:15:06;11.98;;;7.75;;
77091;SDS011;66032;48.252;11.638;2023-03-19T07:17:33;12.77;;;8.32;;
77091;SDS011;66032;48.252;11.638;2023-03-19T07:20:01;12.65;;;7.72;;
77091;SDS011;66032;48.252;11.638;2023-03-19T07:22:28;13.30;;;8.00;;
77091;SDS011;66032;48.252;11.638;2023-03-19T07:24:55;13.35;;;7.03;;
77091;SDS011;66032;48.252;11.638;2023-03-19T07:27:22;13.60;;;7.78;;
77091;SDS011;66032;48.252;11.638;2023-03-19T07:29:50;11.90;;;7.97;;
77091;SDS011;66032;48.252;11.638;2023-03-19T07:32:17;14.32;;;8.05;;
77091;SDS011;66032;48.252;11.638;2023-03-19T07:34:44;11.95;;;6.80;;
77091;SDS011;66032;48.252;11.638;2023-03-19T07:37:11;13.45;;;8.10;;
77091;SDS011;66032;48.252;11.638;2023-03-19T07:39:38;10.98;;;6.93;;
77091;SDS011;66032;48.252;11.638;2023-03-19T07:42:06;12.18;;;7.20;;
77091;SDS011;66032;48.252;11.638;2023-03-19T07:44:33;11.43;;;7.47;;
77091;SDS011;66032;48.252;11.638;2023-03-19T07:47:00;12.48;;;7.25;;
77091;SDS011;66032;48.252;11.638;2023-03-19T07:49:27;12.27;;;7.00;;
77091;SDS011;66032;48.252;11.638;2023-03-19T07:51:54;11.93;;;5.75;;
77091;SDS011;66032;48.252;11.638;2023-03-19T07:54:22;9.10;;;5.97;;
77091;SDS011;66032;48.252;11.638;2023-03-19T07:56:49;10.60;;;6.20;;
77091;SDS011;66032;48.252;11.638;2023-03-19T07:59:16;9.73;;;5.88;;
77091;SDS011;66032;48.252;11.638;2023-03-19T08:01:43;8.98;;;5.90;;
77091;SDS011;66032;48.252;11.638;2023-03-19T08:04:11;11.82;;;5.43;;
77091;SDS011;66032;48.252;11.638;2023-03-19T08:06:38;9.82;;;5.40;;
77091;SDS011;66032;48.252;11.638;2023-03-19T08:09:05;9.95;;;5.93;;
77091;SDS011;66032;48.252;11.638;2023-03-19T08:11:33;8.23;;;4.93;;
77091;SDS011;66032;48.252;11.638;2023-03-19T08:14:00;7.40;;;4.95;;
77091;SDS011;66032;48.252;11.638;2023-03-19T08:16:27;9.30;;;5.20;;
77091;SDS011;66032;48.252;11.638;2023-03-19T08:18:54;7.20;;;4.30;;
77091;SDS011;66032;48.252;11.638;2023-03-19T08:21:22;6.78;;;4.32;;
77091;SDS011;66032;48.252;11.638;2023-03-19T08:23:49;7.50;;;4.72;;
77091;SDS011;66032;48.252;11.638;2023-03-19T08:26:16;6.50;;;3.45;;
77091;SDS011;66032;48.252;11.638;2023-03-19T08:28:43;6.70;;;3.63;;
77091;SDS011;66032;48.252;11.638;2023-03-19T08:31:11;7.65;;;4.68;;
77091;SDS011;66032;48.252;11.638;2023-03-19T08:33:39;7.07;;;4.40;;
77091;SDS011;66032;48.252;11.638;2023-03-19T08:36:10;6.65;;;4.13;;
77091;SDS011;66032;48.252;11.638;2023-03-19T08:38:39;5.72;;;3.42;;
77091;SDS011;66032;48.252;11.638;2023-03-19T08:41:07;5.90;;;3.17;;
77091;SDS011;66032;48.252;11.638;2023-03-19T08:43:35;5.88;;;3.70;;
77091;SDS011;66032;48.252;11.638;2023-03-19T08:46:04;6.68;;;3.67;;
77091;SDS011;66032;48.252;11.638;2023-03-19T08:48:31;7.05;;;3.70;;
77091;SDS011;66032;48.252;11.638;2023-03-19T08:51:00;5.68;;;4.10;;
77091;SDS011;66032;48.252;11.638;2023-03-19T08:53:29;6.75;;;3.30;;
77091;SDS011;66032;48.252;11.638;2023-03-19T08:56:01;6.40;;;3.78;;
77091;SDS011;66032;48.252;11.638;2023-03-19T08:58:30;5.85;;;3.67;;
77091;SDS011;66032;48.252;11.638;2023-03-19T09:01:04;5.68;;;3.63;;
77091;SDS011;66032;48.252;11.638;2023-03-19T09:03:34;6.00;;;3.78;;
77091;SDS011;66032;48.252;11.638;2023-03-19T09:06:02;4.97;;;3.03;;
77091;SDS011;66032;48.252;11.638;2023-03-19T09:08:32;6.20;;;3.95;;
77091;SDS011;66032;48.252;11.638;2023-03-19T09:11:00;6.00;;;4.07;;
77091;SDS011;66032;48.252;11.638;2023-03-19T09:13:29;5.57;;;3.83;;
77091;SDS011;66032;48.252;11.638;2023-03-19T09:15:56;5.45;;;3.70;;
77091;SDS011;66032;48.252;11.638;2023-03-19T09:18:24;5.97;;;4.07;;
77091;SDS011;66032;48.252;11.638;2023-03-19T09:20:52;5.38;;;3.45;;
77091;SDS011;66032;48.252;11.638;2023-03-19T09:23:20;5.78;;;2.90;;
77091;SDS011;66032;48.252;11.638;2023-03-19T09:25:48;5.75;;;3.55;;
77091;SDS011;66032;48.252;11.638;2023-03-19T09:28:16;5.20;;;3.03;;
77091;SDS011;66032;48.252;11.638;2023-03-19T09:30:47;6.13;;;3.45;;
77091;SDS011;66032;48.252;11.638;2023-03-19T09:33:16;4.37;;;3.00;;
77091;SDS011;66032;48.252;11.638;2023-03-19T09:35:48;8.07;;;3.63;;
77091;SDS011;66032;48.252;11.638;2023-03-19T09:38:18;6.80;;;3.60;;
77091;SDS011;66032;48.252;11.638;2023-03-19T09:41:01;6.13;;;3.53;;
77091;SDS011;66032;48.252;11.638;2023-03-19T09:46:17;5.40;;;3.70;;
77091;SDS011;66032;48.252;11.638;2023-03-19T09:49:10;4.97;;;3.38;;
77091;SDS011;66032;48.252;11.638;2023-03-19T09:54:28;6.10;;;3.28;;
77091;SDS011;66032;48.252;11.638;2023-03-19T09:56:58;4.70;;;3.20;;
77091;SDS011;66032;48.252;11.638;2023-03-19T09:59:26;4.88;;;2.97;;
77091;SDS011;66032;48.252;11.638;2023-03-19T10:01:56;4.65;;;3.35;;
77091;SDS011;66032;48.252;11.638;2023-03-19T10:15:48;5.15;;;3.10;;
77091;SDS011;66032;48.252;11.638;2023-03-19T10:18:19;5.55;;;3.45;;
77091;SDS011;66032;48.252;11.638;2023-03-19T10:26:13;5.25;;;3.25;;
77091;SDS011;66032;48.252;11.638;2023-03-19T10:28:57;6.45;;;3.53;;
77091;SDS011;66032;48.252;11.638;2023-03-19T10:34:10;4.10;;;2.65;;
77091;SDS011;66032;48.252;11.638;2023-03-19T10:37:13;6.28;;;3.47;;
77091;SDS011;66032;48.252;11.638;2023-03-19T10:39:52;6.00;;;3.00;;
77091;SDS011;66032;48.252;11.638;2023-03-19T10:42:42;4.30;;;2.90;;
77091;SDS011;66032;48.252;11.638;2023-03-19T10:45:31;4.57;;;2.88;;
77091;SDS011;66032;48.252;11.638;2023-03-19T10:48:03;4.70;;;2.80;;
77091;SDS011;66032;48.252;11.638;2023-03-19T10:50:34;4.35;;;2.83;;
77091;SDS011;66032;48.252;11.638;2023-03-19T10:55:45;4.63;;;2.72;;
77091;SDS011;66032;48.252;11.638;2023-03-19T10:58:18;5.00;;;2.85;;
77091;SDS011;66032;48.252;11.638;2023-03-19T11:00:47;5.32;;;2.90;;
77091;SDS011;66032;48.252;11.638;2023-03-19T11:08:51;4.07;;;3.10;;
77091;SDS011;66032;48.252;11.638;2023-03-19T11:11:36;4.32;;;2.70;;
77091;SDS011;66032;48.252;11.638;2023-03-19T11:14:19;4.05;;;2.63;;
77091;SDS011;66032;48.252;11.638;2023-03-19T11:19:25;3.63;;;2.20;;
77091;SDS011;66032;48.252;11.638;2023-03-19T11:22:02;4.20;;;2.60;;
77091;SDS011;66032;48.252;11.638;2023-03-19T11:24:38;5.25;;;2.60;;
77091;SDS011;66032;48.252;11.638;2023-03-19T11:27:07;3.67;;;2.33;;
77091;SDS011;66032;48.252;11.638;2023-03-19T11:29:36;3.72;;;2.30;;
77091;SDS011;66032;48.252;11.638;2023-03-19T11:32:27;4.10;;;2.28;;
77091;SDS011;66032;48.252;11.638;2023-03-19T11:35:06;3.47;;;2.05;;
77091;SDS011;66032;48.252;11.638;2023-03-19T11:40:30;3.45;;;2.20;;
77091;SDS011;66032;48.252;11.638;2023-03-19T11:45:59;4.25;;;2.30;;
77091;SDS011;66032;48.252;11.638;2023-03-19T11:51:30;4.05;;;2.10;;
77091;SDS011;66032;48.252;11.638;2023-03-19T11:54:05;3.70;;;2.25;;
77091;SDS011;66032;48.252;11.638;2023-03-19T11:56:43;3.83;;;2.50;;
77091;SDS011;66032;48.252;11.638;2023-03-19T12:07:44;3.45;;;2.20;;
77091;SDS011;66032;48.252;11.638;2023-03-19T12:10:25;4.95;;;2.38;;
77091;SDS011;66032;48.252;11.638;2023-03-19T12:15:49;4.40;;;2.22;;
77091;SDS011;66032;48.252;11.638;2023-03-19T12:18:47;4.70;;;2.55;;
77091;SDS011;66032;48.252;11.638;2023-03-19T12:21:47;4.47;;;2.40;;
77091;SDS011;66032;48.252;11.638;2023-03-19T12:32:39;3.90;;;2.22;;
77091;SDS011;66032;48.252;11.638;2023-03-19T12:35:34;4.38;;;2.78;;
77091;SDS011;66032;48.252;11.638;2023-03-19T12:40:59;4.45;;;2.53;;
77091;SDS011;66032;48.252;11.638;2023-03-19T12:49:24;4.75;;;2.67;;
77091;SDS011;66032;48.252;11.638;2023-03-19T12:52:43;4.10;;;2.38;;
77091;SDS011;66032;48.252;11.638;2023-03-19T12:55:48;3.58;;;2.13;;
77091;SDS011;66032;48.252;11.638;2023-03-19T12:58:23;5.10;;;2.72;;
77091;SDS011;66032;48.252;11.638;2023-03-19T13:01:02;4.93;;;2.72;;
77091;SDS011;66032;48.252;11.638;2023-03-19T13:11:45;4.38;;;2.50;;
77091;SDS011;66032;48.252;11.638;2023-03-19T13:14:21;5.20;;;2.50;;
77091;SDS011;66032;48.252;11.638;2023-03-19T13:19:47;4.25;;;2.30;;
77091;SDS011;66032;48.252;11.638;2023-03-19T13:22:23;4.03;;;2.60;;
77091;SDS011;66032;48.252;11.638;2023-03-19T13:24:59;5.63;;;2.40;;
77091;SDS011;66032;48.252;11.638;2023-03-19T13:27:29;4.18;;;2.60;;
77091;SDS011;66032;48.252;11.638;2023-03-19T13:35:44;3.53;;;2.33;;
77091;SDS011;66032;48.252;11.638;2023-03-19T13:38:59;4.15;;;2.60;;
77091;SDS011;66032;48.252;11.638;2023-03-19T13:44:46;5.47;;;2.97;;
77091;SDS011;66032;48.252;11.638;2023-03-19T13:46:48;4.78;;;2.80;;
77091;SDS011;66032;48.252;11.638;2023-03-19T13:54:43;4.25;;;2.70;;
77091;SDS011;66032;48.252;11.638;2023-03-19T13:59:45;4.60;;;2.70;;
77091;SDS011;66032;48.252;11.638;2023-03-19T14:04:51;4.60;;;2.80;;
77091;SDS011;66032;48.252;11.638;2023-03-19T14:07:28;4.70;;;2.90;;
77091;SDS011;66032;48.252;11.638;2023-03-19T14:13:07;4.70;;;2.92;;
77091;SDS011;66032;48.252;11.638;2023-03-19T14:15:48;5.25;;;3.03;;
77091;SDS011;66032;48.252;11.638;2023-03-19T14:18:17;4.72;;;2.60;;
77091;SDS011;66032;48.252;11.638;2023-03-19T14:21:02;4.57;;;2.63;;
77091;SDS011;66032;48.252;11.638;2023-03-19T14:23:38;4.75;;;3.22;;
77091;SDS011;66032;48.252;11.638;2023-03-19T14:26:16;4.15;;;2.40;;
77091;SDS011;66032;48.252;11.638;2023-03-19T14:34:18;4.38;;;2.60;;
77091;SDS011;66032;48.252;11.638;2023-03-19T14:37:20;5.57;;;2.70;;
77091;SDS011;66032;48.252;11.638;2023-03-19T14:39:58;4.70;;;2.80;;
77091;SDS011;66032;48.252;11.638;2023-03-19T14:45:25;4.47;;;2.78;;
77091;SDS011;66032;48.252;11.638;2023-03-19T14:53:43;4.68;;;3.00;;
77091;SDS011;66032;48.252;11.638;2023-03-19T14:56:13;4.53;;;2.85;;
77091;SDS011;66032;48.252;11.638;2023-03-19T14:58:51;5.70;;;2.78;;
77091;SDS011;66032;48.252;11.638;2023-03-19T15:01:21;4.57;;;2.80;;
77091;SDS011;66032;48.252;11.638;2023-03-19T15:03:52;4.55;;;2.80;;
77091;SDS011;66032;48.252;11.638;2023-03-19T15:06:25;3.85;;;2.40;;
77091;SDS011;66032;48.252;11.638;2023-03-19T15:08:59;3.92;;;2.55;;
77091;SDS011;66032;48.252;11.638;2023-03-19T15:11:43;4.13;;;2.72;;
77091;SDS011;66032;48.252;11.638;2023-03-19T15:19:49;4.68;;;2.90;;
77091;SDS011;66032;48.252;11.638;2023-03-19T15:22:19;4.25;;;2.60;;
77091;SDS011;66032;48.252;11.638;2023-03-19T15:25:08;3.97;;;2.22;;
77091;SDS011;66032;48.252;11.638;2023-03-19T15:27:38;4.70;;;2.83;;
77091;SDS011;66032;48.252;11.638;2023-03-19T15:30:23;5.60;;;3.00;;
77091;SDS011;66032;48.252;11.638;2023-03-19T15:32:55;4.60;;;2.80;;
77091;SDS011;66032;48.252;11.638;2023-03-19T15:35:40;4.50;;;3.00;;
77091;SDS011;66032;48.252;11.638;2023-03-19T15:38:08;4.95;;;3.25;;
77091;SDS011;66032;48.252;11.638;2023-03-19T15:40:38;4.28;;;2.90;;
77091;SDS011;66032;48.252;11.638;2023-03-19T15:43:09;5.90;;;3.15;;
77091;SDS011;66032;48.252;11.638;2023-03-19T15:45:38;5.03;;;3.10;;
77091;SDS011;66032;48.252;11.638;2023-03-19T15:50:48;3.97;;;2.90;;
77091;SDS011;66032;48.252;11.638;2023-03-19T15:53:23;5.22;;;3.10;;
77091;SDS011;66032;48.252;11.638;2023-03-19T15:55:52;4.88;;;2.97;;
77091;SDS011;66032;48.252;11.638;2023-03-19T15:58:22;4.88;;;3.10;;
77091;SDS011;66032;48.252;11.638;2023-03-19T16:00:53;4.60;;;2.97;;
77091;SDS011;66032;48.252;11.638;2023-03-19T16:03:28;4.90;;;2.88;;
77091;SDS011;66032;48.252;11.638;2023-03-19T16:06:00;5.72;;;3.25;;
77091;SDS011;66032;48.252;11.638;2023-03-19T16:08:31;6.07;;;3.15;;
77091;SDS011;66032;48.252;11.638;2023-03-19T16:11:12;4.55;;;2.92;;
77091;SDS011;66032;48.252;11.638;2023-03-19T16:13:56;4.60;;;2.45;;
77091;SDS011;66032;48.252;11.638;2023-03-19T16:16:31;5.85;;;3.20;;
77091;SDS011;66032;48.252;11.638;2023-03-19T16:18:58;5.65;;;3.33;;
77091;SDS011;66032;48.252;11.638;2023-03-19T16:26:56;4.90;;;3.10;;
77091;SDS011;66032;48.252;11.638;2023-03-19T16:29:37;5.38;;;3.15;;
77091;SDS011;66032;48.252;11.638;2023-03-19T16:32:25;5.90;;;3.40;;
77091;SDS011;66032;48.252;11.638;2023-03-19T16:34:56;6.25;;;4.30;;
77091;SDS011;66032;48.252;11.638;2023-03-19T16:37:31;6.43;;;3.58;;
77091;SDS011;66032;48.252;11.638;2023-03-19T16:47:42;5.78;;;3.53;;
77091;SDS011;66032;48.252;11.638;2023-03-19T16:50:30;5.82;;;3.55;;
77091;SDS011;66032;48.252;11.638;2023-03-19T16:53:03;5.85;;;3.55;;
77091;SDS011;66032;48.252;11.638;2023-03-19T16:55:52;5.30;;;3.47;;
77091;SDS011;66032;48.252;11.638;2023-03-19T16:58:31;7.65;;;4.03;;
77091;SDS011;66032;48.252;11.638;2023-03-19T17:01:01;6.15;;;3.78;;
77091;SDS011;66032;48.252;11.638;2023-03-19T17:03:39;8.82;;;4.00;;
77091;SDS011;66032;48.252;11.638;2023-03-19T17:06:07;6.38;;;3.75;;
77091;SDS011;66032;48.252;11.638;2023-03-19T17:08:37;6.68;;;4.10;;
77091;SDS011;66032;48.252;11.638;2023-03-19T17:11:04;10.65;;;4.10;;
77091;SDS011;66032;48.252;11.638;2023-03-19T17:13:32;7.68;;;4.38;;
77091;SDS011;66032;48.252;11.638;2023-03-19T17:16:04;7.05;;;3.58;;
77091;SDS011;66032;48.252;11.638;2023-03-19T17:18:33;5.72;;;3.42;;
77091;SDS011;66032;48.252;11.638;2023-03-19T17:21:07;7.35;;;3.75;;
77091;SDS011;66032;48.252;11.638;2023-03-19T17:24:24;6.03;;;3.38;;
77091;SDS011;66032;48.252;11.638;2023-03-19T17:27:00;6.93;;;3.20;;
77091;SDS011;66032;48.252;11.638;2023-03-19T17:29:29;7.07;;;3.70;;